Terminal Aerodrome Forecast
Issued by NWS

Home | Current Version | Previous Version | Text Only | Print | Product List | Glossary On
Versions: 1 2 3 4 5 6 7 8 9 10 11 12 13
000
FTUS41 KBGM 162320
TAFRME
TAF
KRME 162320Z 1700/1724 VRB03KT 2SM -SN OVC025
     FM170600 26006KT 5SM -SN OVC025
      TEMPO 1706/1710 1SM -SN OVC007
     FM171500 28010G20KT P6SM -SHSN OVC025=

USA.gov is the U.S. government's official web portal to all federal, state and local government web resources and services.